createdAt,value
2017-08-04T04:04:36.721Z,0
2017-08-04T04:09:39.664Z,0
2017-08-04T04:14:42.617Z,0
2017-08-04T04:19:45.564Z,0
2017-08-04T04:24:48.492Z,0
2017-08-04T04:29:51.464Z,5
2017-08-04T04:34:54.384Z,5
2017-08-04T04:39:57.317Z,8
2017-08-04T04:45:00.288Z,12
2017-08-04T04:50:03.226Z,18
2017-08-04T04:55:06.189Z,20
2017-08-04T05:00:09.192Z,20
2017-08-04T05:05:12.141Z,17
2017-08-04T05:10:15.085Z,15
2017-08-04T05:15:18.041Z,18
2017-08-04T05:20:21.020Z,24
2017-08-04T05:25:23.973Z,25
2017-08-04T05:30:26.908Z,22
2017-08-04T05:35:29.887Z,21
2017-08-04T05:40:32.832Z,24
2017-08-04T05:45:35.791Z,30
2017-08-04T05:50:38.737Z,27
2017-08-04T05:55:41.685Z,25
2017-08-04T06:00:44.684Z,28
2017-08-04T06:05:47.694Z,40
2017-08-04T06:10:50.671Z,49
2017-08-04T06:15:53.622Z,48
2017-08-04T06:20:56.582Z,50
2017-08-04T06:25:59.634Z,52
2017-08-04T06:31:02.605Z,58
2017-08-04T06:36:05.557Z,60
2017-08-04T06:41:08.599Z,62
2017-08-04T06:46:11.725Z,58
2017-08-04T06:51:14.694Z,55
2017-08-04T06:56:17.648Z,63
2017-08-04T07:01:20.717Z,78
2017-08-04T07:06:23.665Z,73
2017-08-04T07:11:26.633Z,63
2017-08-04T07:16:29.595Z,67
2017-08-04T07:21:32.549Z,79
2017-08-04T07:26:35.651Z,78
2017-08-04T07:31:38.586Z,87
2017-08-04T07:36:41.625Z,82
2017-08-04T07:41:45.936Z,85
2017-08-04T07:46:48.867Z,93
2017-08-04T07:51:51.838Z,111
2017-08-04T07:56:54.818Z,110
2017-08-04T08:01:57.885Z,113
2017-08-04T08:07:00.968Z,108
2017-08-04T08:12:03.969Z,100
2017-08-04T08:17:06.923Z,86
2017-08-04T08:22:09.928Z,106
2017-08-04T08:27:12.938Z,115
2017-08-04T08:32:15.919Z,98
2017-08-04T08:37:18.897Z,108
2017-08-04T08:42:21.904Z,100
2017-08-04T08:47:25.018Z,105
2017-08-04T08:52:27.985Z,132
2017-08-04T08:57:30.942Z,138
2017-08-04T09:02:33.921Z,110
2017-08-04T09:07:36.898Z,112
2017-08-04T09:12:39.978Z,124
2017-08-04T09:17:42.932Z,131
2017-08-04T09:22:45.943Z,118
2017-08-04T09:27:55.718Z,113
2017-08-04T09:32:58.293Z,125
2017-08-04T09:38:01.269Z,128
2017-08-04T09:43:04.224Z,153
2017-08-04T09:48:07.214Z,154
2017-08-04T09:53:11.960Z,151
2017-08-04T09:58:15.678Z,152
2017-08-04T10:03:18.623Z,109
2017-08-04T10:08:22.635Z,69
2017-08-04T10:13:25.652Z,91
2017-08-04T10:18:28.607Z,78
2017-08-04T10:23:31.564Z,58
2017-08-04T10:28:35.154Z,72
2017-08-04T10:33:38.120Z,135
2017-08-04T10:38:41.082Z,183
2017-08-04T10:43:44.074Z,232
2017-08-04T10:48:47.053Z,262
2017-08-04T10:53:50.229Z,248
2017-08-04T10:58:53.276Z,169
2017-08-04T11:09:00.302Z,188
2017-08-04T11:14:03.267Z,108
2017-08-04T11:23:50.047Z,124
2017-08-04T11:28:53.003Z,168
2017-08-04T11:33:57.640Z,199
2017-08-04T11:39:00.688Z,233
2017-08-04T11:44:03.681Z,293
2017-08-04T11:49:06.653Z,123
2017-08-04T11:54:09.651Z,184
2017-08-04T11:59:12.629Z,250
2017-08-04T12:04:15.634Z,269
2017-08-04T12:09:18.902Z,217
2017-08-04T12:14:21.891Z,216
2017-08-04T12:19:24.864Z,330
2017-08-04T12:24:27.906Z,283
2017-08-04T12:29:30.904Z,571
2017-08-04T12:34:33.899Z,1157
2017-08-04T12:39:36.980Z,2006
2017-08-04T12:44:39.973Z,1345
2017-08-04T12:49:43.022Z,1604
2017-08-04T12:54:46.033Z,660
2017-08-04T12:59:49.055Z,315
2017-08-04T13:04:52.049Z,305
2017-08-04T13:09:55.062Z,538
2017-08-04T13:14:58.082Z,472
2017-08-04T13:20:01.147Z,352
2017-08-04T13:25:04.138Z,170
2017-08-04T13:30:07.179Z,211
2017-08-04T13:35:10.199Z,477
2017-08-04T13:40:13.196Z,1038
2017-08-04T13:45:16.241Z,1220
2017-08-04T13:50:19.254Z,404
2017-08-04T13:55:22.316Z,216
2017-08-04T14:00:25.365Z,204
2017-08-04T14:05:28.459Z,83
2017-08-04T14:10:31.545Z,366
2017-08-04T14:15:34.522Z,225
2017-08-04T14:20:37.522Z,41
2017-08-04T14:25:40.495Z,197
2017-08-04T14:30:43.537Z,220
2017-08-04T14:35:46.525Z,455
2017-08-04T14:40:49.521Z,460
2017-08-04T14:45:52.541Z,263
2017-08-04T14:50:55.672Z,78
2017-08-04T14:55:58.908Z,48
2017-08-04T15:01:01.888Z,35
2017-08-04T15:06:04.869Z,65
2017-08-04T15:11:07.856Z,173
2017-08-04T15:16:10.832Z,628
2017-08-04T15:21:13.861Z,882
2017-08-04T15:26:16.872Z,928
2017-08-04T15:31:19.862Z,184
2017-08-04T15:36:23.065Z,96
2017-08-04T15:41:26.036Z,133
2017-08-04T15:46:29.034Z,205
2017-08-04T15:51:32.093Z,149
2017-08-04T15:56:35.131Z,114
2017-08-04T16:01:38.151Z,98
2017-08-04T16:06:41.204Z,133
2017-08-04T16:11:44.191Z,158
2017-08-04T16:16:47.150Z,119
2017-08-04T16:21:50.219Z,104
2017-08-04T16:26:53.554Z,108
2017-08-04T16:31:56.911Z,116
2017-08-04T16:37:00.144Z,102
2017-08-04T16:42:03.158Z,97
2017-08-04T16:47:06.148Z,84
2017-08-04T16:52:09.153Z,59
2017-08-04T16:57:12.242Z,75
2017-08-04T17:02:15.207Z,74
2017-08-04T17:07:18.220Z,55
2017-08-04T17:17:46.095Z,31
2017-08-04T17:22:49.049Z,33
2017-08-04T17:32:24.204Z,38
2017-08-04T17:37:27.188Z,39
2017-08-04T17:42:30.168Z,31
2017-08-04T17:47:33.120Z,30
2017-08-04T17:52:36.073Z,29
2017-08-04T17:57:39.045Z,28
2017-08-04T18:02:42.442Z,24
2017-08-04T18:07:45.464Z,20
2017-08-04T18:12:48.406Z,19
2017-08-04T18:17:51.360Z,17
2017-08-04T18:22:54.370Z,16
2017-08-04T18:27:57.378Z,24
2017-08-04T18:33:00.324Z,19
2017-08-04T18:38:03.328Z,14
2017-08-04T18:43:06.282Z,10
2017-08-04T18:48:09.586Z,8
2017-08-04T18:53:12.588Z,5
2017-08-04T18:58:16.422Z,5
2017-08-04T19:03:19.734Z,5
2017-08-04T19:08:22.876Z,0
2017-08-04T19:13:25.779Z,0
2017-08-04T19:18:28.844Z,0
2017-08-04T19:23:31.801Z,0
2017-08-04T19:28:36.571Z,0
2017-08-04T19:33:40.167Z,0
2017-08-04T19:38:44.061Z,0
2017-08-04T19:43:50.632Z,0
2017-08-04T19:48:53.530Z,0
2017-08-04T19:53:56.595Z,0
2017-08-04T19:58:59.629Z,0
2017-08-04T20:04:02.962Z,0
2017-08-04T20:09:06.402Z,0
2017-08-04T20:14:09.841Z,0
2017-08-04T20:19:12.793Z,0
2017-08-04T20:24:15.773Z,0
2017-08-04T20:29:18.852Z,0
2017-08-04T20:34:21.917Z,0
2017-08-04T20:39:24.934Z,0
2017-08-04T20:44:27.980Z,0
2017-08-04T20:49:31.021Z,0
2017-08-04T20:54:33.960Z,0
2017-08-04T20:59:36.976Z,0
2017-08-04T21:04:39.876Z,0
2017-08-04T21:09:42.856Z,0
2017-08-04T21:14:45.787Z,0
2017-08-04T21:19:48.806Z,0
2017-08-04T21:24:51.787Z,0
2017-08-04T21:29:54.767Z,0
2017-08-04T21:34:58.037Z,0
2017-08-04T21:40:01.055Z,0
2017-08-04T21:45:04.068Z,0
2017-08-04T21:50:07.325Z,0
2017-08-04T21:55:10.551Z,0
2017-08-04T22:00:13.498Z,0
2017-08-04T22:05:16.532Z,0
2017-08-04T22:10:19.484Z,0
2017-08-04T22:15:22.454Z,0
2017-08-04T22:20:25.367Z,0
2017-08-04T22:25:28.323Z,0
2017-08-04T22:30:31.336Z,0
2017-08-04T22:35:34.267Z,0
2017-08-04T22:40:37.189Z,0
2017-08-04T22:45:40.115Z,0
2017-08-04T22:50:43.044Z,0
2017-08-04T22:55:45.957Z,0
